createdAt,value
2022-09-18T00:01:12.387Z,11.88
2022-09-18T00:03:41.966Z,11.83
2022-09-18T00:06:12.482Z,11.82
2022-09-18T00:08:40.379Z,11.76
2022-09-18T00:11:10.085Z,11.80
2022-09-18T00:13:39.026Z,11.81
2022-09-18T00:16:09.394Z,11.74
2022-09-18T00:18:36.879Z,11.81
2022-09-18T00:21:08.062Z,11.81
2022-09-18T00:23:36.176Z,11.74
2022-09-18T00:26:03.950Z,11.65
2022-09-18T00:28:31.662Z,11.70
2022-09-18T00:31:04.573Z,11.66
2022-09-18T00:33:32.481Z,11.62
2022-09-18T00:36:01.721Z,11.69
2022-09-18T00:38:31.828Z,11.79
2022-09-18T00:40:59.677Z,11.79
2022-09-18T00:43:30.184Z,11.81
2022-09-18T00:46:01.517Z,11.86
2022-09-18T00:48:39.938Z,11.80
2022-09-18T00:51:06.935Z,11.77
2022-09-18T00:53:41.820Z,11.75
2022-09-18T00:56:14.656Z,11.71
2022-09-18T00:58:42.781Z,11.72
2022-09-18T01:01:09.981Z,11.71
2022-09-18T01:03:36.869Z,11.73
2022-09-18T01:06:14.769Z,11.75
2022-09-18T01:09:07.571Z,11.67
2022-09-18T01:11:48.126Z,11.68
2022-09-18T01:14:30.518Z,11.68
2022-09-18T01:17:09.834Z,11.76
2022-09-18T01:20:01.975Z,11.80
2022-09-18T01:22:54.106Z,11.84
2022-09-18T01:25:38.460Z,11.90
2022-09-18T01:28:20.752Z,11.87
2022-09-18T01:30:52.401Z,11.87
2022-09-18T01:33:30.828Z,11.83
2022-09-18T01:36:06.437Z,11.74
2022-09-18T01:38:40.301Z,11.71
2022-09-18T01:41:14.404Z,11.75
2022-09-18T01:43:47.095Z,11.77
2022-09-18T01:46:19.020Z,11.80
2022-09-18T01:48:55.453Z,11.73
2022-09-18T01:51:30.834Z,11.64
2022-09-18T01:54:06.694Z,11.71
2022-09-18T01:56:42.049Z,11.63
2022-09-18T01:59:18.805Z,11.61
2022-09-18T02:01:57.452Z,11.62
2022-09-18T02:04:30.393Z,11.76
2022-09-18T02:07:07.466Z,11.76
2022-09-18T02:09:35.421Z,11.65
2022-09-18T02:12:07.560Z,11.72
2022-09-18T02:14:42.557Z,11.64
2022-09-18T02:17:34.875Z,11.59
2022-09-18T02:20:11.530Z,11.53
2022-09-18T02:22:44.431Z,11.49
2022-09-18T02:25:18.506Z,11.58
2022-09-18T02:27:49.123Z,11.44
2022-09-18T02:30:18.024Z,11.40
2022-09-18T02:32:44.841Z,11.35
2022-09-18T02:35:13.490Z,11.33
2022-09-18T02:37:56.680Z,11.38
2022-09-18T02:40:42.486Z,11.40
2022-09-18T02:43:31.026Z,11.32
2022-09-18T02:46:12.932Z,11.31
2022-09-18T02:48:56.511Z,11.29
2022-09-18T02:51:34.716Z,11.31
2022-09-18T02:54:08.259Z,11.35
2022-09-18T02:56:42.469Z,11.41
2022-09-18T02:59:17.747Z,11.32
2022-09-18T03:01:55.156Z,11.24
2022-09-18T03:04:25.607Z,11.24
2022-09-18T03:07:17.871Z,11.22
2022-09-18T03:09:50.990Z,11.26
2022-09-18T03:12:18.040Z,11.36
2022-09-18T03:14:47.943Z,11.29
2022-09-18T03:17:16.191Z,11.23
2022-09-18T03:19:44.878Z,11.20
2022-09-18T03:22:13.533Z,11.21
2022-09-18T03:24:41.804Z,11.18
2022-09-18T03:27:08.556Z,11.31
2022-09-18T03:29:36.070Z,11.26
2022-09-18T03:32:03.794Z,11.16
2022-09-18T03:34:40.009Z,11.17
2022-09-18T03:37:07.237Z,11.22
2022-09-18T03:39:34.572Z,11.27
2022-09-18T03:42:02.663Z,11.19
2022-09-18T03:44:31.739Z,11.16
2022-09-18T03:47:03.463Z,11.11
2022-09-18T03:49:30.955Z,11.12
2022-09-18T03:51:58.990Z,11.15
2022-09-18T03:54:30.477Z,11.15
2022-09-18T03:57:13.214Z,11.06
2022-09-18T03:59:53.411Z,11.15
2022-09-18T04:02:38.884Z,11.12
2022-09-18T04:05:24.934Z,11.17
2022-09-18T04:08:15.920Z,11.19
2022-09-18T04:11:01.237Z,11.26
2022-09-18T04:13:27.993Z,11.27
2022-09-18T04:16:01.897Z,11.21
2022-09-18T04:18:29.381Z,11.36
2022-09-18T04:20:57.435Z,11.35
2022-09-18T04:23:25.643Z,11.41
2022-09-18T04:25:52.741Z,11.52
2022-09-18T04:28:19.696Z,11.44
2022-09-18T04:30:48.381Z,11.36
2022-09-18T04:33:16.227Z,11.40
2022-09-18T04:35:43.503Z,11.37
2022-09-18T04:38:10.865Z,11.59
2022-09-18T04:40:39.212Z,11.64
2022-09-18T04:43:05.977Z,11.62
2022-09-18T04:45:32.763Z,11.64
2022-09-18T04:47:59.722Z,11.61
2022-09-18T04:50:28.113Z,11.62
2022-09-18T04:53:11.634Z,11.48
2022-09-18T04:55:42.881Z,11.50
2022-09-18T04:58:10.299Z,11.43
2022-09-18T05:00:37.541Z,11.41
2022-09-18T05:03:05.006Z,11.45
2022-09-18T05:05:34.663Z,11.37
2022-09-18T05:08:02.821Z,11.40
2022-09-18T05:10:30.547Z,11.51
2022-09-18T05:12:58.806Z,11.57
2022-09-18T05:15:27.509Z,11.62
2022-09-18T05:18:07.730Z,11.59
2022-09-18T05:20:37.662Z,11.57
2022-09-18T05:23:06.977Z,11.51
2022-09-18T05:25:35.853Z,11.56
2022-09-18T05:28:04.787Z,11.63
2022-09-18T05:30:37.908Z,11.60
2022-09-18T05:33:07.665Z,11.55
2022-09-18T05:35:39.138Z,11.57
2022-09-18T05:38:06.513Z,11.61
2022-09-18T05:40:37.521Z,11.60
2022-09-18T05:43:06.389Z,11.59
2022-09-18T05:45:34.976Z,11.55
2022-09-18T05:48:07.453Z,11.68
2022-09-18T05:50:35.710Z,11.67
2022-09-18T05:53:05.422Z,11.71
2022-09-18T05:55:43.714Z,11.63
2022-09-18T05:58:14.575Z,11.64
2022-09-18T06:00:42.356Z,11.63
2022-09-18T06:03:16.110Z,11.77
2022-09-18T06:05:51.650Z,11.81
2022-09-18T06:08:18.898Z,11.78
2022-09-18T06:10:45.655Z,11.79
2022-09-18T06:13:16.381Z,11.74
2022-09-18T06:15:48.878Z,11.84
2022-09-18T06:18:20.773Z,11.82
2022-09-18T06:20:54.147Z,11.80
2022-09-18T06:23:26.826Z,11.87
2022-09-18T06:26:02.115Z,11.86
2022-09-18T06:28:33.130Z,11.79
2022-09-18T06:31:04.437Z,11.82
2022-09-18T06:33:43.839Z,11.82
2022-09-18T06:36:11.360Z,11.87
2022-09-18T06:38:44.935Z,12.02
2022-09-18T06:41:11.851Z,11.98
2022-09-18T06:43:52.276Z,11.98
2022-09-18T06:46:33.688Z,12.02
2022-09-18T06:49:13.589Z,11.93
2022-09-18T06:51:44.107Z,11.92
2022-09-18T06:54:12.284Z,11.97
2022-09-18T06:56:40.789Z,12.00
2022-09-18T06:59:11.350Z,12.03
2022-09-18T07:01:39.087Z,12.02
2022-09-18T07:04:15.672Z,12.12
2022-09-18T07:06:45.756Z,11.97
2022-09-18T07:09:14.026Z,12.01
2022-09-18T07:11:52.751Z,12.03
2022-09-18T07:14:26.126Z,11.99
2022-09-18T07:16:57.022Z,12.03
2022-09-18T07:19:23.855Z,12.04
2022-09-18T07:21:51.838Z,12.02
2022-09-18T07:24:19.190Z,11.89
2022-09-18T07:26:46.094Z,11.97
2022-09-18T07:29:12.978Z,12.01
2022-09-18T07:31:41.659Z,12.09
2022-09-18T07:34:11.804Z,12.17
2022-09-18T07:36:38.723Z,12.18
2022-09-18T07:39:05.551Z,12.19
2022-09-18T07:41:44.767Z,12.20
2022-09-18T07:44:11.987Z,12.23
2022-09-18T07:46:38.855Z,12.25
2022-09-18T07:49:09.381Z,12.33
2022-09-18T07:51:36.547Z,12.41
2022-09-18T07:54:04.725Z,12.44
2022-09-18T07:56:50.722Z,12.51
2022-09-18T07:59:21.057Z,12.51
2022-09-18T08:01:54.288Z,12.59
2022-09-18T08:04:24.888Z,12.59
2022-09-18T08:07:06.213Z,12.56
2022-09-18T08:09:51.120Z,12.51
2022-09-18T08:12:43.886Z,12.52
2022-09-18T08:15:27.486Z,12.59
2022-09-18T08:18:21.436Z,12.82
2022-09-18T08:20:58.648Z,12.98
2022-09-18T08:23:47.098Z,13.04
2022-09-18T08:26:17.672Z,13.17
2022-09-18T08:28:48.641Z,13.18
2022-09-18T08:31:16.198Z,13.22
2022-09-18T08:33:43.680Z,13.57
2022-09-18T08:36:12.418Z,14.11
2022-09-18T08:38:47.323Z,14.23
2022-09-18T08:42:11.857Z,14.36
2022-09-18T08:44:50.635Z,13.92
2022-09-18T08:47:25.262Z,13.63
2022-09-18T08:50:00.816Z,13.70
2022-09-18T08:52:37.368Z,13.60
2022-09-18T08:55:24.257Z,13.55
2022-09-18T08:58:16.927Z,13.41
2022-09-18T09:00:51.053Z,13.32
2022-09-18T09:03:45.935Z,13.36
2022-09-18T09:06:33.863Z,13.53
2022-09-18T09:09:25.891Z,13.73
2022-09-18T09:12:03.291Z,13.94
2022-09-18T09:15:21.549Z,13.82
2022-09-18T09:22:04.718Z,13.69
2022-09-18T09:24:41.560Z,13.69
2022-09-18T09:27:47.890Z,13.73
2022-09-18T09:30:35.420Z,13.66
2022-09-18T09:33:16.433Z,13.71
2022-09-18T09:36:07.966Z,13.89
2022-09-18T09:38:57.388Z,13.98
2022-09-18T09:41:36.829Z,14.01
2022-09-18T09:44:25.364Z,14.12
2022-09-18T09:47:25.224Z,14.27
2022-09-18T09:50:12.947Z,14.51
2022-09-18T09:52:44.855Z,14.87
2022-09-18T09:55:25.216Z,15.12
2022-09-18T09:58:15.388Z,15.23
2022-09-18T10:00:56.760Z,15.41
2022-09-18T10:03:36.527Z,15.42
2022-09-18T10:06:28.938Z,15.54
2022-09-18T10:12:21.200Z,15.73
2022-09-18T10:15:02.929Z,15.76
2022-09-18T10:17:38.505Z,15.71
2022-09-18T10:20:14.047Z,15.69
2022-09-18T10:22:41.389Z,15.84
2022-09-18T10:25:25.497Z,16.18
2022-09-18T10:27:53.080Z,16.17
2022-09-18T10:30:21.618Z,16.40
2022-09-18T10:32:52.747Z,16.80
2022-09-18T10:35:44.886Z,16.80
2022-09-18T10:38:33.704Z,16.86
2022-09-18T10:41:37.064Z,16.89
2022-09-18T10:44:27.538Z,16.89
2022-09-18T10:47:08.272Z,17.06
2022-09-18T10:49:49.330Z,17.39
2022-09-18T10:52:34.064Z,17.53
2022-09-18T10:55:15.920Z,17.75
2022-09-18T10:58:12.374Z,17.97
2022-09-18T11:00:51.974Z,18.03
2022-09-18T11:03:39.435Z,17.87
2022-09-18T11:06:16.151Z,18.58
2022-09-18T11:08:49.364Z,18.97
2022-09-18T11:11:27.639Z,19.46
2022-09-18T11:14:00.875Z,19.18
2022-09-18T11:16:43.764Z,18.85
2022-09-18T11:19:26.382Z,18.71
2022-09-18T11:21:57.859Z,18.47
2022-09-18T11:24:29.195Z,19.46
2022-09-18T11:27:20.842Z,18.98
2022-09-18T11:29:54.944Z,18.79
2022-09-18T11:32:29.364Z,18.13
2022-09-18T11:35:14.240Z,18.11
2022-09-18T11:37:48.725Z,17.97
2022-09-18T11:40:27.611Z,17.52
2022-09-18T11:42:57.084Z,16.98
2022-09-18T11:45:56.770Z,16.28
2022-09-18T11:48:34.291Z,16.07
2022-09-18T11:51:13.528Z,16.01
2022-09-18T11:53:45.872Z,16.14
2022-09-18T11:56:27.515Z,16.15
2022-09-18T11:59:09.509Z,16.28
2022-09-18T12:01:42.823Z,16.37
2022-09-18T12:04:19.118Z,16.30
2022-09-18T12:06:59.046Z,16.19
2022-09-18T12:09:38.823Z,16.22
2022-09-18T12:12:18.635Z,16.28
2022-09-18T12:14:56.831Z,16.51
2022-09-18T12:17:34.556Z,16.61
2022-09-18T12:20:11.663Z,16.61
2022-09-18T12:22:49.828Z,16.73
2022-09-18T12:25:24.422Z,16.56
2022-09-18T12:28:29.846Z,16.60
2022-09-18T12:31:43.150Z,16.35
2022-09-18T12:35:04.094Z,16.40
2022-09-18T12:38:19.911Z,16.54
2022-09-18T12:41:17.849Z,16.58
2022-09-18T12:44:52.714Z,16.77
2022-09-18T12:47:50.230Z,16.71
2022-09-18T12:54:17.025Z,16.36
2022-09-18T12:57:08.447Z,16.25
2022-09-18T12:59:57.887Z,16.21
2022-09-18T13:02:49.171Z,16.09
2022-09-18T13:05:27.224Z,15.91
2022-09-18T13:08:03.630Z,15.93
2022-09-18T13:10:39.660Z,15.88
2022-09-18T13:13:15.909Z,16.00
2022-09-18T13:15:51.058Z,15.98
2022-09-18T13:18:32.448Z,15.96
2022-09-18T13:21:05.424Z,15.91
2022-09-18T13:23:39.211Z,15.98
2022-09-18T13:26:14.348Z,15.95
2022-09-18T13:28:43.529Z,15.88
2022-09-18T13:31:25.648Z,15.66
2022-09-18T13:33:59.508Z,15.48
2022-09-18T13:36:32.340Z,15.53
2022-09-18T13:39:04.233Z,15.44
2022-09-18T13:41:46.210Z,15.49
2022-09-18T13:44:20.423Z,15.50
2022-09-18T13:46:50.697Z,15.55
2022-09-18T13:49:26.183Z,15.45
2022-09-18T13:51:53.164Z,15.49
2022-09-18T13:54:27.717Z,15.42
2022-09-18T13:57:32.482Z,15.39
2022-09-18T14:00:00.710Z,15.41
2022-09-18T14:02:40.672Z,15.42
2022-09-18T14:05:31.817Z,15.36
2022-09-18T14:08:09.733Z,15.49
2022-09-18T14:11:14.455Z,15.54
2022-09-18T14:13:53.619Z,15.35
2022-09-18T14:16:29.683Z,15.39
2022-09-18T14:19:26.468Z,15.36
2022-09-18T14:21:54.192Z,15.27
2022-09-18T14:24:58.474Z,15.26
2022-09-18T14:27:42.647Z,15.43
2022-09-18T14:30:19.829Z,15.48
2022-09-18T14:33:17.675Z,15.45
2022-09-18T14:35:54.499Z,15.53
2022-09-18T14:38:32.126Z,15.59
2022-09-18T14:41:12.166Z,15.61
2022-09-18T14:43:47.255Z,15.67
2022-09-18T14:46:23.219Z,15.67
2022-09-18T14:48:54.815Z,15.64
2022-09-18T14:51:25.870Z,15.68
2022-09-18T14:53:55.832Z,15.63
2022-09-18T14:56:32.762Z,15.58
2022-09-18T14:59:05.627Z,15.63
2022-09-18T15:01:39.338Z,15.53
2022-09-18T15:04:25.705Z,15.44
2022-09-18T15:10:52.298Z,15.41
2022-09-18T15:13:21.920Z,15.40
2022-09-18T15:15:59.512Z,15.32
2022-09-18T15:18:29.618Z,15.30
2022-09-18T15:20:59.733Z,15.32
2022-09-18T15:23:37.751Z,15.33
2022-09-18T15:26:12.642Z,15.26
2022-09-18T15:28:44.215Z,15.39
2022-09-18T15:31:14.756Z,15.29
2022-09-18T15:33:57.624Z,15.24
2022-09-18T15:37:18.640Z,15.28
2022-09-18T15:40:03.968Z,15.30
2022-09-18T15:42:35.228Z,15.19
2022-09-18T15:45:21.502Z,15.28
2022-09-18T15:47:53.292Z,15.13
2022-09-18T15:50:41.380Z,15.26
2022-09-18T15:53:24.348Z,15.34
2022-09-18T15:56:07.137Z,15.25
2022-09-18T15:58:51.965Z,15.33
2022-09-18T16:01:27.518Z,15.34
2022-09-18T16:04:19.693Z,15.33
2022-09-18T16:06:59.937Z,15.26
2022-09-18T16:09:40.930Z,15.16
2022-09-18T16:12:42.226Z,15.27
2022-09-18T16:15:23.442Z,15.27
2022-09-18T16:18:28.705Z,15.27
2022-09-18T16:21:02.936Z,15.13
2022-09-18T16:23:36.198Z,15.08
2022-09-18T16:26:11.465Z,15.10
2022-09-18T16:28:43.725Z,15.01
2022-09-18T16:31:13.442Z,15.07
2022-09-18T16:33:51.636Z,15.09
2022-09-18T16:36:28.581Z,15.01
2022-09-18T16:38:59.495Z,15.09
2022-09-18T16:41:28.282Z,15.10
2022-09-18T16:43:55.449Z,15.01
2022-09-18T16:46:29.988Z,14.90
2022-09-18T16:48:57.617Z,14.89
2022-09-18T16:51:24.506Z,14.80
2022-09-18T16:53:51.525Z,14.79
2022-09-18T16:56:26.650Z,14.85
2022-09-18T16:58:57.320Z,14.86
2022-09-18T17:01:24.678Z,14.81
2022-09-18T17:03:51.984Z,14.79
2022-09-18T17:06:19.104Z,14.75
2022-09-18T17:08:46.905Z,14.74
2022-09-18T17:11:13.845Z,14.75
2022-09-18T17:13:42.050Z,14.76
2022-09-18T17:16:09.092Z,14.74
2022-09-18T17:18:36.084Z,14.77
2022-09-18T17:21:04.866Z,14.72
2022-09-18T17:23:32.433Z,14.72
2022-09-18T17:26:05.330Z,14.64
2022-09-18T17:28:32.238Z,14.59
2022-09-18T17:31:06.505Z,14.65
2022-09-18T17:33:33.631Z,14.67
2022-09-18T17:36:05.770Z,14.63
2022-09-18T17:38:36.413Z,14.56
2022-09-18T17:41:07.426Z,14.54
2022-09-18T17:43:34.944Z,14.58
2022-09-18T17:46:06.301Z,14.48
2022-09-18T17:48:33.890Z,14.56
2022-09-18T17:51:04.104Z,14.48
2022-09-18T17:54:03.171Z,14.52
2022-09-18T17:56:32.199Z,14.47
2022-09-18T17:59:05.997Z,14.45
2022-09-18T18:01:38.813Z,14.52
2022-09-18T18:04:07.336Z,14.51
2022-09-18T18:06:35.511Z,14.58
2022-09-18T18:09:02.475Z,14.58
2022-09-18T18:11:29.692Z,14.49
2022-09-18T18:13:56.872Z,14.47
2022-09-18T18:16:27.664Z,14.46
2022-09-18T18:18:59.474Z,14.40
2022-09-18T18:21:29.862Z,14.35
2022-09-18T18:24:02.889Z,14.29
2022-09-18T18:26:30.585Z,14.25
2022-09-18T18:28:58.071Z,14.08
2022-09-18T18:31:27.070Z,14.20
2022-09-18T18:34:08.488Z,14.11
2022-09-18T18:36:39.831Z,13.91
2022-09-18T18:40:30.522Z,13.97
2022-09-18T18:43:44.046Z,13.52
2022-09-18T18:46:14.347Z,13.57
2022-09-18T18:48:43.740Z,13.57
2022-09-18T18:51:16.742Z,13.44
2022-09-18T18:53:44.377Z,13.43
2022-09-18T18:56:15.609Z,13.47
2022-09-18T18:58:47.646Z,13.47
2022-09-18T19:01:20.722Z,13.26
2022-09-18T19:04:05.342Z,12.80
2022-09-18T19:06:36.614Z,12.70
2022-09-18T19:09:19.287Z,12.93
2022-09-18T19:11:54.274Z,12.79
2022-09-18T19:14:28.343Z,12.57
2022-09-18T19:16:56.726Z,12.61
2022-09-18T19:19:35.701Z,12.86
2022-09-18T19:22:09.748Z,12.82
2022-09-18T19:37:28.281Z,13.06
2022-09-18T19:39:57.354Z,12.98
2022-09-18T19:42:50.412Z,12.97
2022-09-18T19:45:28.118Z,12.90
2022-09-18T19:47:56.289Z,12.78
2022-09-18T19:50:30.950Z,12.71
2022-09-18T19:53:03.792Z,12.69
2022-09-18T19:55:50.727Z,12.75
2022-09-18T19:58:34.753Z,12.67
2022-09-18T20:01:24.298Z,12.78
2022-09-18T20:29:50.749Z,12.35
2022-09-18T20:32:17.865Z,12.26
2022-09-18T20:34:47.769Z,12.28
2022-09-18T20:37:15.078Z,12.13
2022-09-18T20:39:41.921Z,12.23
2022-09-18T20:42:09.089Z,12.16
2022-09-18T20:44:36.031Z,12.17
2022-09-18T20:47:05.554Z,12.22
2022-09-18T20:49:32.779Z,12.17
2022-09-18T20:52:00.257Z,12.27
2022-09-18T20:54:27.005Z,12.42
2022-09-18T20:56:53.982Z,12.50
2022-09-18T20:59:21.020Z,12.49
2022-09-18T21:01:48.626Z,12.41
2022-09-18T21:04:20.529Z,12.25
2022-09-18T21:06:51.317Z,12.29
2022-09-18T21:09:18.240Z,12.31
2022-09-18T21:11:45.016Z,12.29
2022-09-18T21:14:14.338Z,12.29
2022-09-18T21:16:41.440Z,12.29
2022-09-18T21:19:11.330Z,12.30
2022-09-18T21:21:40.902Z,12.30
2022-09-18T21:24:08.319Z,12.30
2022-09-18T21:26:37.953Z,12.28
2022-09-18T21:29:11.496Z,12.20
2022-09-18T21:31:40.846Z,12.13
2022-09-18T21:34:08.641Z,12.09
2022-09-18T21:36:35.509Z,12.09
2022-09-18T21:39:05.053Z,12.07
2022-09-18T21:41:32.919Z,12.07
2022-09-18T21:43:59.654Z,12.10
2022-09-18T21:46:26.828Z,12.07
2022-09-18T21:48:53.585Z,12.05
2022-09-18T21:51:20.994Z,12.05
2022-09-18T21:53:47.958Z,12.07
2022-09-18T21:56:20.153Z,12.10
2022-09-18T21:58:47.859Z,12.13
2022-09-18T22:01:17.791Z,11.99
2022-09-18T22:03:47.894Z,12.02
2022-09-18T22:06:14.663Z,11.99
2022-09-18T22:08:41.512Z,11.98
2022-09-18T22:11:08.246Z,12.00
2022-09-18T22:13:36.483Z,11.96
2022-09-18T22:16:03.260Z,12.02
2022-09-18T22:18:30.142Z,12.06
2022-09-18T22:20:56.830Z,12.53
2022-09-18T22:23:23.749Z,12.63
2022-09-18T22:25:50.763Z,12.44
2022-09-18T22:28:18.174Z,12.20
2022-09-18T22:30:46.333Z,12.07
2022-09-18T22:33:13.763Z,12.03
2022-09-18T22:35:40.549Z,12.02
2022-09-18T22:38:07.514Z,12.01
2022-09-18T22:40:34.299Z,12.11
2022-09-18T22:43:01.303Z,12.30
2022-09-18T22:45:28.094Z,12.17
2022-09-18T22:47:56.353Z,12.25
2022-09-18T22:50:23.646Z,12.10
2022-09-18T22:52:50.399Z,11.91
2022-09-18T22:55:17.253Z,11.80
2022-09-18T22:57:44.011Z,11.74
2022-09-18T23:00:16.500Z,11.64
2022-09-18T23:02:43.434Z,11.70
2022-09-18T23:05:11.570Z,11.65
2022-09-18T23:07:38.991Z,11.50
2022-09-18T23:10:07.650Z,11.45
2022-09-18T23:12:34.654Z,11.45
2022-09-18T23:15:03.746Z,11.39
2022-09-18T23:17:30.710Z,11.34
2022-09-18T23:19:57.413Z,11.32
2022-09-18T23:22:25.754Z,11.33
2022-09-18T23:24:52.501Z,11.35
2022-09-18T23:27:19.305Z,11.26
2022-09-18T23:29:46.049Z,11.26
2022-09-18T23:32:12.742Z,11.23
2022-09-18T23:34:40.119Z,11.22
2022-09-18T23:37:06.833Z,11.17
2022-09-18T23:39:35.117Z,11.18
2022-09-18T23:42:03.953Z,11.17
2022-09-18T23:44:31.304Z,11.10
2022-09-18T23:46:59.097Z,11.07
2022-09-18T23:49:25.992Z,11.00
2022-09-18T23:51:54.414Z,10.93
2022-09-18T23:54:24.371Z,10.91
2022-09-18T23:56:55.071Z,10.90
2022-09-18T23:59:25.232Z,10.84
